METAR Data
IDs: Format: Raw Decoded Include TAF

Data at: 1810 UTC 21 Sep 2018

KSWW 211755Z AUTO 00000KT 4SM BKN004 OVC009 22/22 A2997 RMK AO2 P0001 60112 T02210221 10230 20215
KSWW 211735Z AUTO 03004KT 2 1/2SM SCT004 BKN008 OVC020 22/22 A2998 RMK AO2 T02210221
KSWW 211715Z AUTO 08005KT 2 1/2SM SCT003 BKN012 OVC020 22/22 A2998 RMK AO2 T02220222
KSWW 211655Z AUTO 00000KT 1 1/4SM OVC003 22/22 A2998 RMK AO2 P0019 T02180218
KSWW 211635Z AUTO 02007KT 3SM BKN003 OVC010 22/22 A2998 RMK AO2 LTG DSNT S P0013 T02200220
KSWW 211615Z AUTO 01005KT 3SM BKN003 BKN009 OVC025 22/22 A2998 RMK AO2 LTG DSNT S P0004 T02180218
KSWW 211555Z AUTO 02006KT 7SM SCT005 SCT024 BKN055 22/22 A2998 RMK AO2 LTG DSNT S P0027 T02180218
KSWW 211535Z AUTO 33003KT 4SM SCT008 SCT016 BKN024 22/22 A2998 RMK AO2 LTG DSNT S P0026 T02160216
KSWW 211515Z AUTO 00000KT 1SM BKN010 OVC017 22/22 A2998 RMK AO2 P0014 T02150215
KSWW 211455Z AUTO 23003KT 1 1/4SM SCT010 BKN015 OVC020 22/22 A2998 RMK AO2 LTG DSNT S P0045 60063 T02150215
KSWW 211435Z AUTO 00000KT 1/2SM BKN009 OVC016 22/22 A2998 RMK AO2 LTG DSNT S P0028 T02150215
KSWW 211415Z AUTO 21005KT 2 1/2SM SCT018 BKN025 OVC060 22/22 A2997 RMK AO2 LTG DSNT S P0004 T02170217
KSWW 211355Z AUTO 22004KT 2 1/2SM SCT018 BKN049 OVC060 22/22 A2997 RMK AO2 LTG DSNT S P0008 T02160216
KSWW 211335Z AUTO 16004KT 10SM SCT033 BKN049 OVC070 22/22 A2997 RMK AO2 LTG DSNT S P0003 T02180218
KSWW 211315Z AUTO 15006KT 10SM SCT006 BKN031 OVC110 22/22 A2997 RMK AO2 LTG DSNT S P0001 T02200220
KSWW 211255Z AUTO 18009KT 10SM SCT006 SCT039 BKN060 22/22 A2996 RMK AO2 LTG DSNT S P0010 T02240224
KSWW 211235Z AUTO 18006KT 10SM SCT010 SCT020 BKN090 23/23 A2995 RMK AO2 LTG DSNT S AND SW P0010 T02270227
KSWW 211215Z AUTO 18004KT 2SM BKN012 OVC020 23/23 A2994 RMK AO2 LTG DSNT S AND SW P0009 T02270227
KSWW 211155Z AUTO 17004KT 7SM SCT018 BKN050 OVC100 23/23 A2994 RMK AO2 P0005 60062 70062 T02280228 10232 20225
KSWW 211135Z AUTO 17011G15KT 7SM SCT046 BKN060 OVC110 23/23 A2994 RMK AO2 LTG DSNT S P0001 T02280228
KSWW 211115Z AUTO 17009G14KT 10SM SCT008 SCT028 OVC110 23/23 A2993 RMK AO2 LTG DSNT S P0001 T02270227
KSWW 211055Z AUTO 14009KT 7SM BKN006 BKN010 OVC022 23/23 A2993 RMK AO2 LTG DSNT S AND SW P0046 T02260226
KSWW 211035Z AUTO 14004KT 1/2SM OVC005 23/23 A2992 RMK AO2 LTG DSNT SW P0041 T02250225
KSWW 211015Z AUTO 13007KT 7SM VCTS SCT009 BKN023 OVC046 23/23 A2992 RMK AO2 LTG DSNT SW P0002 T02260226
KSWW 210955Z AUTO 13007KT 7SM SCT011 BKN022 OVC048 23/23 A2993 RMK AO2 P0011 T02250225
KSWW 210935Z AUTO 12007KT 2SM VCTS SCT013 BKN020 OVC050 23/23 A2993 RMK AO2 VIS 1V5 LTG DSNT S P0009 T02250225
KSWW 210915Z AUTO 14006KT 10SM SCT019 BKN060 OVC090 23/23 A2993 RMK AO2 LTG DSNT SW T02250225
KSWW 210855Z AUTO 14008KT 10SM SCT007 SCT060 BKN070 23/23 A2994 RMK AO2 T02270227
KSWW 210835Z AUTO 15009KT 10SM SCT100 BKN110 23/22 A2994 RMK AO2 LTG DSNT SW T02300220
KSWW 210815Z AUTO 15011G16KT 10SM OVC100 23/22 A2994 RMK AO2 LTG DSNT SW T02300217
KSWW 210755Z AUTO 15010KT 10SM OVC100 23/22 A2994 RMK AO2 LTG DSNT N AND SW T02300216
KSWW 210735Z AUTO 15012KT 10SM OVC100 23/22 A2995 RMK AO2 LTG DSNT SW T02320215
KSWW 210715Z AUTO 15012KT 10SM OVC100 23/22 A2995 RMK AO2 LTG DSNT SW T02320215
KSWW 210655Z AUTO 15008KT 10SM OVC100 23/21 A2995 RMK AO2 LTG DSNT SW T02320214
KSWW 210635Z AUTO 15009KT 10SM BKN100 23/22 A2995 RMK AO2 LTG DSNT SW T02310215
KSWW 210615Z AUTO 15012KT 10SM CLR 23/22 A2996 RMK AO2 LTG DSNT SW T02310215
KSWW 210555Z AUTO 14012G15KT 10SM CLR 23/22 A2996 RMK AO2 LTG DSNT SW T02320215 10269 20232 403030212
KSWW 210535Z AUTO 15011G16KT 10SM CLR 24/22 A2997 RMK AO2 LTG DSNT SW AND NW T02350215
KSWW 210515Z AUTO 15009KT 10SM CLR 24/22 A2997 RMK AO2 T02350215
KSWW 210455Z AUTO 15009KT 10SM SCT090 24/22 A2997 RMK AO2 T02350216
KSWW 210435Z AUTO 15010KT 10SM BKN090 23/22 A2997 RMK AO2 T02340216
KSWW 210415Z AUTO 15009KT 10SM CLR 24/22 A2997 RMK AO2 T02350215
KSWW 210355Z AUTO 15010G14KT 10SM CLR 24/22 A2997 RMK AO2 T02350215
KSWW 210335Z AUTO 14008KT 10SM CLR 24/21 A2996 RMK AO2 T02350212
KSWW 210315Z AUTO 14009KT 10SM CLR 24/21 A2996 RMK AO2 T02350211
KSWW 210250Z AUTO 14010KT 10SM CLR 24/21 A2995 RMK AO2 LTG DSNT SW T02380209
KSWW 210235Z AUTO 13010KT 10SM SCT036 SCT043 24/21 A2995 RMK AO2 T02400206
KSWW 210215Z AUTO 13009KT 10SM BKN035 BKN043 24/20 A2995 RMK AO2 T02430203
KSWW 210155Z AUTO 13010KT 10SM BKN033 BKN050 25/19 A2994 RMK AO2 T02520193
KSWW 210135Z AUTO 15007KT 10SM SCT050 BKN100 26/19 A2992 RMK AO2 T02550191
KSWW 210115Z AUTO 14006KT 10SM SCT100 25/19 A2992 RMK AO2 T02510191
KSWW 210055Z AUTO 15008KT 10SM CLR 25/19 A2991 RMK AO2 T02540191
KSWW 210035Z AUTO 14007KT 10SM CLR 26/19 A2991 RMK AO2 T02570190
KSWW 210015Z AUTO 14009KT 10SM CLR 26/19 A2990 RMK AO2 T02620188
KSWW 202355Z AUTO 14011G16KT 10SM CLR 27/19 A2990 RMK AO2 T02710185 10303 20265
KSWW 202335Z AUTO 15013G18KT 10SM SCT090 28/18 A2989 RMK AO2 T02780183
KSWW 202315Z AUTO 15010KT 10SM SCT090 28/18 A2989 RMK AO2 T02810184
KSWW 202255Z AUTO 15011G18KT 10SM SCT080 28/18 A2989 RMK AO2 T02810180
KSWW 202235Z AUTO 16011G18KT 10SM SCT070 OVC080 28/18 A2989 RMK AO2 T02770181
KSWW 202215Z AUTO 18014G20KT 10SM BKN075 BKN090 27/18 A2991 RMK AO2 T02680183
KSWW 202155Z AUTO 18018G21KT 10SM SCT046 SCT060 BKN080 27/18 A2990 RMK AO2 T02680184
KSWW 202135Z AUTO 19021G30KT 10SM SCT046 SCT060 BKN070 28/18 A2991 RMK AO2 T02770179
KSWW 202115Z AUTO 16014G20KT 10SM SCT050 SCT070 SCT080 29/17 A2990 RMK AO2 T02940173
KSWW 202055Z AUTO 15015KT 10SM SCT044 SCT050 29/17 A2991 RMK AO2 T02940171
KSWW 202035Z AUTO 16015G19KT 10SM SCT046 SCT065 30/17 A2992 RMK AO2 T02950171
KSWW 202015Z AUTO 15015G22KT 10SM SCT046 30/17 A2992 RMK AO2 T03020170
KSWW 201955Z AUTO 14014G19KT 10SM SCT048 30/17 A2994 RMK AO2 LTG DSNT SE T03000171
KSWW 201935Z AUTO 15016G22KT 10SM SCT048 30/17 A2995 RMK AO2 T03030170
KSWW 201915Z AUTO 15017G23KT 10SM CLR 30/18 A2995 RMK AO2 T02950183
KSWW 201855Z AUTO 15019G23KT 10SM SCT041 SCT050 29/18 A2997 RMK AO2 T02920176
KSWW 201835Z AUTO 16015G21KT 10SM CLR 30/18 A2998 RMK AO2 T02980179
KSWW 201815Z AUTO 15017G23KT 10SM CLR 30/17 A2998 RMK AO2 T02970171
KSWW 201755Z AUTO 16019G23KT 10SM SCT043 29/17 A2999 RMK AO2 T02920172 10292 20212
KSWW 201735Z AUTO 16016G19KT 10SM SCT040 SCT048 SCT060 29/17 A3000 RMK AO2 T02860170
KSWW 201715Z AUTO 16017G23KT 10SM SCT031 SCT041 BKN060 29/18 A3001 RMK AO2 T02850181
KSWW 201655Z AUTO 16016KT 10SM SCT029 SCT035 BKN046 29/19 A3002 RMK AO2 T02850185
KSWW 201635Z AUTO 17015G21KT 10SM SCT028 BKN034 BKN041 28/20 A3002 RMK AO2 T02750195
KSWW 201615Z AUTO 18015G19KT 10SM SCT026 28/19 A3002 RMK AO2 T02750194
KSWW 201555Z AUTO 18015KT 10SM SCT020 26/20 A3002 RMK AO2 T02620196
KSWW 201535Z AUTO 17015G20KT 10SM SCT020 26/20 A3002 RMK AO2 T02630199
KSWW 201515Z AUTO 18015KT 10SM SCT016 26/20 A3001 RMK AO2 T02550199
KSWW 201455Z AUTO 18016G22KT 10SM SCT014 25/20 A3001 RMK AO2 T02460203
KSWW 201435Z AUTO 18017G23KT 10SM SCT014 24/20 A3001 RMK AO2 T02410204
KSWW 201410Z AUTO 17016KT 10SM CLR 24/21 A3000 RMK AO2 T02360205
KSWW 201355Z AUTO 17014KT 10SM CLR 23/21 A3000 RMK AO2 T02330205
KSWW 201335Z AUTO 17012KT 10SM CLR 23/21 A2999 RMK AO2 T02250206
KSWW 201315Z AUTO 17012KT 10SM CLR 22/21 A2999 RMK AO2 T02160205
KSWW 201255Z AUTO 16010KT 10SM CLR 21/21 A2999 RMK AO2 T02120205
KSWW 201235Z AUTO 16009KT 10SM CLR 22/20 A2998 RMK AO2 T02160203
KSWW 201215Z AUTO 17011KT 10SM CLR 22/20 A2998 RMK AO2 T02200202
KSWW 201155Z AUTO 18012KT 10SM CLR 22/20 A2997 RMK AO2 T02230202 10235 20220
KSWW 201135Z AUTO 17010KT 10SM CLR 22/20 A2997 RMK AO2 T02230202
KSWW 201115Z AUTO 17012KT 10SM CLR 23/20 A2997 RMK AO2 T02250201
KSWW 201055Z AUTO 17015KT 10SM CLR 23/20 A2997 RMK AO2 T02250200
KSWW 201035Z AUTO 17012G15KT 10SM CLR 22/20 A2997 RMK AO2 T02240197
KSWW 201015Z AUTO 17012KT 10SM CLR 22/20 A2997 RMK AO2 T02230195
KSWW 200955Z AUTO 16011KT 10SM CLR 22/19 A2997 RMK AO2 T02230193
KSWW 200935Z AUTO 16009G15KT 10SM CLR 22/19 A2997 RMK AO2 T02230193
KSWW 200915Z AUTO 16009KT 10SM CLR 23/19 A2997 RMK AO2 T02250193
KSWW 200855Z AUTO 16011KT 10SM CLR 22/19 A2997 RMK AO2 T02230192
KSWW 200835Z AUTO 16009KT 10SM CLR 22/19 A2997 RMK AO2 T02230191
KSWW 200815Z AUTO 16010KT 10SM CLR 22/19 A2998 RMK AO2 T02230190
KSWW 200755Z AUTO 16010KT 10SM CLR 22/19 A2998 RMK AO2 T02230188
KSWW 200735Z AUTO 17007KT 10SM CLR 22/19 A2998 RMK AO2 T02200185
KSWW 200715Z AUTO 16008KT 10SM CLR 23/18 A2998 RMK AO2 T02250181
KSWW 200655Z AUTO 16009KT 10SM CLR 23/18 A2998 RMK AO2 T02260180
KSWW 200635Z AUTO 14008KT 10SM CLR 23/18 A2998 RMK AO2 T02280180
KSWW 200615Z AUTO 16008KT 10SM CLR 23/18 A2999 RMK AO2 T02340178